Navios*hios — SXJH — position and weather

sailwx.info

Track history (hours):
 
Tides and Currents Weather Stations Pressure Air Temp Water Temp Dewpoint Dewpoint Depression Visibility Wind Speed Wind Dir Waves Ship Positions

Navios*hios

Last reported at 2017-Oct-12 10:21 UTC. Time now 2017-Oct-20 16:03 UTC.
Position N 24°34' W 114°09'.
Warning: this ship's position is 8 days out of date.

Length 190 m; draft 11.4 m.

Type: Cargo ship. MMSI: 240149000.

Date/timePositionNaut miles runAvg speedWind from/ knotsBaromVisibWave heightAir tempDewpointWater temp
2017-Oct-12 10:21N 24°34' W 114°09'49110.5
2017-Oct-10 11:45N 29°16' W 121°40'1010.8
2017-Oct-10 10:48N 29°21' W 121°50'410.7
2017-Oct-10 10:25N 29°24' W 121°54'510.6
2017-Oct-10 09:57N 29°26' W 121°59'510.6
2017-Oct-10 09:27N 29°29' W 122°04'910.8
2017-Oct-10 08:37N 29°34' W 122°12'510.6
2017-Oct-10 08:09N 29°37' W 122°17'110.5
2017-Oct-10 08:00N 29°38' W 122°18'510.6
2017-Oct-10 07:30N 29°41' W 122°23'610.5
2017-Oct-10 06:58N 29°44' W 122°29'610.4
2017-Oct-10 06:23N 29°48' W 122°34'510.4
2017-Oct-10 05:55N 29°51' W 122°39'810.6
2017-Oct-10 05:07N 29°55' W 122°47'610.6
2017-Oct-10 04:32N 29°59' W 122°53'0 9.6
2017-Oct-10 04:30N 29°59' W 122°53'510.5
2017-Oct-10 03:59N 30°02' W 122°59'610.6
2017-Oct-10 03:28N 30°05' W 123°04'510.5
2017-Oct-10 03:00N 30°08' W 123°08'510.5
2017-Oct-10 02:30N 30°11' W 123°13'810.3
2017-Oct-10 01:42N 30°16' W 123°21'210.4
2017-Oct-10 01:30N 30°17' W 123°23'610.2
2017-Oct-10 00:54N 30°20' W 123°29'510.2
2017-Oct-10 00:23N 30°23' W 123°34'510.1
2017-Oct-09 23:51N 30°27' W 123°39'1110.2
2017-Oct-09 22:44N 30°33' W 123°50'210.0
2017-Oct-09 22:30N 30°34' W 123°52'510.3
2017-Oct-09 22:00N 30°37' W 123°57'610.3
2017-Oct-09 21:23N 30°41' W 124°03'410.2
2017-Oct-09 21:00N 30°43' W 124°07'510.5
2017-Oct-09 20:30N 30°46' W 124°12'510.4
2017-Oct-09 20:00N 30°49' W 124°17'510.2
2017-Oct-09 19:30N 30°52' W 124°22'710.3
2017-Oct-09 18:49N 30°56' W 124°28'310.5
2017-Oct-09 18:30N 30°58' W 124°31'510.1
2017-Oct-09 17:58N 31°01' W 124°37'510.2
2017-Oct-09 17:30N 31°04' W 124°41'1510.1
2017-Oct-09 16:03N 31°12' W 124°55'110.1
2017-Oct-09 15:55N 31°13' W 124°57'198 9.9
2017-Oct-08 19:52N 33°30' W 127°45'8110.0
2017-Oct-08 11:45N 34°31' W 128°50'310.2
2017-Oct-08 11:30N 34°33' W 128°52'910.0
2017-Oct-08 10:38N 34°40' W 128°58'19410.2
2017-Oct-07 15:44N 36°38' W 132°08'610.7
2017-Oct-07 15:09N 36°41' W 132°14'210.8
2017-Oct-07 15:00N 36°42' W 132°16'511.0
2017-Oct-07 14:30N 36°45' W 132°21'610.9
2017-Oct-07 13:59N 36°48' W 132°27'510.8
2017-Oct-07 13:30N 36°51' W 132°33'610.6
2017-Oct-07 12:58N 36°54' W 132°39'510.9
2017-Oct-07 12:30N 36°56' W 132°44'1010.7
2017-Oct-07 11:35N 37°02' W 132°55'110.9
2017-Oct-07 11:30N 37°02' W 132°56'610.9
2017-Oct-07 10:56N 37°05' W 133°02'3110.7
2017-Oct-07 08:01N 37°21' W 133°36'010.1
2017-Oct-07 08:00N 37°21' W 133°36'3610.7
2017-Oct-07 04:36N 37°41' W 134°15'110.8
2017-Oct-07 04:30N 37°41' W 134°17'6210.9
2017-Oct-06 22:50N 38°13' W 135°23'510.6
2017-Oct-06 22:23N 38°16' W 135°29'410.5
2017-Oct-06 22:00N 38°18' W 135°33'1310.5
2017-Oct-06 20:46N 38°25' W 135°47'310.6
2017-Oct-06 20:30N 38°27' W 135°50'2610.4
2017-Oct-06 17:57N 38°41' W 136°18'  
Track history (hours):
 
Tides and Currents Weather Stations Pressure Air Temp Water Temp Dewpoint Dewpoint Depression Visibility Wind Speed Wind Dir Waves Ship Positions

Navios*hios

Last reported at 2017-Oct-12 10:21 UTC. Time now 2017-Oct-20 16:04 UTC.
Position N 24°34' W 114°09'.
Warning: this ship's position is 8 days out of date.

Length 190 m; draft 11.4 m.

Type: Cargo ship. MMSI: 240149000.

Date/timePositionNaut miles runAvg speedWind from/ knotsBaromVisibWave heightAir tempDewpointWater temp
2017-Oct-12 10:21N 24°34' W 114°09'49110.5
2017-Oct-10 11:45N 29°16' W 121°40'1010.8
2017-Oct-10 10:48N 29°21' W 121°50'410.7
2017-Oct-10 10:25N 29°24' W 121°54'510.6
2017-Oct-10 09:57N 29°26' W 121°59'510.6
2017-Oct-10 09:27N 29°29' W 122°04'910.8
2017-Oct-10 08:37N 29°34' W 122°12'510.6
2017-Oct-10 08:09N 29°37' W 122°17'110.5
2017-Oct-10 08:00N 29°38' W 122°18'510.6
2017-Oct-10 07:30N 29°41' W 122°23'610.5
2017-Oct-10 06:58N 29°44' W 122°29'610.4
2017-Oct-10 06:23N 29°48' W 122°34'510.4
2017-Oct-10 05:55N 29°51' W 122°39'810.6
2017-Oct-10 05:07N 29°55' W 122°47'610.6
2017-Oct-10 04:32N 29°59' W 122°53'0 9.6
2017-Oct-10 04:30N 29°59' W 122°53'510.5
2017-Oct-10 03:59N 30°02' W 122°59'610.6
2017-Oct-10 03:28N 30°05' W 123°04'510.5
2017-Oct-10 03:00N 30°08' W 123°08'510.5
2017-Oct-10 02:30N 30°11' W 123°13'810.3
2017-Oct-10 01:42N 30°16' W 123°21'210.4
2017-Oct-10 01:30N 30°17' W 123°23'610.2
2017-Oct-10 00:54N 30°20' W 123°29'510.2
2017-Oct-10 00:23N 30°23' W 123°34'510.1
2017-Oct-09 23:51N 30°27' W 123°39'1110.2
2017-Oct-09 22:44N 30°33' W 123°50'210.0
2017-Oct-09 22:30N 30°34' W 123°52'510.3
2017-Oct-09 22:00N 30°37' W 123°57'610.3
2017-Oct-09 21:23N 30°41' W 124°03'410.2
2017-Oct-09 21:00N 30°43' W 124°07'510.5
2017-Oct-09 20:30N 30°46' W 124°12'510.4
2017-Oct-09 20:00N 30°49' W 124°17'510.2
2017-Oct-09 19:30N 30°52' W 124°22'710.3
2017-Oct-09 18:49N 30°56' W 124°28'310.5
2017-Oct-09 18:30N 30°58' W 124°31'510.1
2017-Oct-09 17:58N 31°01' W 124°37'510.2
2017-Oct-09 17:30N 31°04' W 124°41'1510.1
2017-Oct-09 16:03N 31°12' W 124°55'110.1
2017-Oct-09 15:55N 31°13' W 124°57'198 9.9
2017-Oct-08 19:52N 33°30' W 127°45'8110.0
2017-Oct-08 11:45N 34°31' W 128°50'310.2
2017-Oct-08 11:30N 34°33' W 128°52'910.0
2017-Oct-08 10:38N 34°40' W 128°58'19410.2
2017-Oct-07 15:44N 36°38' W 132°08'610.7
2017-Oct-07 15:09N 36°41' W 132°14'210.8
2017-Oct-07 15:00N 36°42' W 132°16'511.0
2017-Oct-07 14:30N 36°45' W 132°21'610.9
2017-Oct-07 13:59N 36°48' W 132°27'510.8
2017-Oct-07 13:30N 36°51' W 132°33'610.6
2017-Oct-07 12:58N 36°54' W 132°39'510.9
2017-Oct-07 12:30N 36°56' W 132°44'1010.7
2017-Oct-07 11:35N 37°02' W 132°55'110.9
2017-Oct-07 11:30N 37°02' W 132°56'610.9
2017-Oct-07 10:56N 37°05' W 133°02'3110.7
2017-Oct-07 08:01N 37°21' W 133°36'010.1
2017-Oct-07 08:00N 37°21' W 133°36'3610.7
2017-Oct-07 04:36N 37°41' W 134°15'110.8
2017-Oct-07 04:30N 37°41' W 134°17'6210.9
2017-Oct-06 22:50N 38°13' W 135°23'510.6
2017-Oct-06 22:23N 38°16' W 135°29'410.5
2017-Oct-06 22:00N 38°18' W 135°33'1310.5
2017-Oct-06 20:46N 38°25' W 135°47'310.6
2017-Oct-06 20:30N 38°27' W 135°50'2610.4
2017-Oct-06 17:57N 38°41' W 136°18'  

Dump ship's entire track history